sensor_id;sensor_type;location;lat;lon;timestamp;P1;durP1;ratioP1;P2;durP2;ratioP2
4704;SDS011;2366;51.332;6.610;2023-05-07T00:01:46;4.70;;;4.30;;
4704;SDS011;2366;51.332;6.610;2023-05-07T00:04:11;5.20;;;4.70;;
4704;SDS011;2366;51.332;6.610;2023-05-07T00:06:38;5.70;;;4.18;;
4704;SDS011;2366;51.332;6.610;2023-05-07T00:09:03;5.40;;;4.90;;
4704;SDS011;2366;51.332;6.610;2023-05-07T00:11:29;4.33;;;3.43;;
4704;SDS011;2366;51.332;6.610;2023-05-07T00:13:55;8.13;;;4.50;;
4704;SDS011;2366;51.332;6.610;2023-05-07T00:16:20;4.50;;;3.57;;
4704;SDS011;2366;51.332;6.610;2023-05-07T00:18:46;4.93;;;4.30;;
4704;SDS011;2366;51.332;6.610;2023-05-07T00:21:11;4.83;;;4.10;;
4704;SDS011;2366;51.332;6.610;2023-05-07T00:23:37;6.30;;;4.23;;
4704;SDS011;2366;51.332;6.610;2023-05-07T00:26:02;4.13;;;3.60;;
4704;SDS011;2366;51.332;6.610;2023-05-07T00:28:28;5.53;;;4.68;;
4704;SDS011;2366;51.332;6.610;2023-05-07T00:30:53;3.93;;;3.63;;
4704;SDS011;2366;51.332;6.610;2023-05-07T00:33:19;4.10;;;3.70;;
4704;SDS011;2366;51.332;6.610;2023-05-07T00:35:45;4.30;;;3.90;;
4704;SDS011;2366;51.332;6.610;2023-05-07T00:38:11;6.90;;;4.10;;
4704;SDS011;2366;51.332;6.610;2023-05-07T00:40:37;5.23;;;4.70;;
4704;SDS011;2366;51.332;6.610;2023-05-07T00:43:02;16.40;;;4.60;;
4704;SDS011;2366;51.332;6.610;2023-05-07T00:45:27;4.87;;;4.33;;
4704;SDS011;2366;51.332;6.610;2023-05-07T00:47:57;5.03;;;4.40;;
4704;SDS011;2366;51.332;6.610;2023-05-07T00:50:25;4.95;;;4.55;;
4704;SDS011;2366;51.332;6.610;2023-05-07T00:52:51;5.57;;;4.13;;
4704;SDS011;2366;51.332;6.610;2023-05-07T00:57:46;6.50;;;4.00;;
4704;SDS011;2366;51.332;6.610;2023-05-07T01:00:12;4.77;;;4.37;;
4704;SDS011;2366;51.332;6.610;2023-05-07T01:02:38;6.88;;;4.90;;
4704;SDS011;2366;51.332;6.610;2023-05-07T01:05:04;5.22;;;4.32;;
4704;SDS011;2366;51.332;6.610;2023-05-07T01:07:32;7.50;;;4.88;;
4704;SDS011;2366;51.332;6.610;2023-05-07T01:09:59;5.40;;;4.43;;
4704;SDS011;2366;51.332;6.610;2023-05-07T01:12:26;10.27;;;5.55;;
4704;SDS011;2366;51.332;6.610;2023-05-07T01:14:52;4.50;;;4.07;;
4704;SDS011;2366;51.332;6.610;2023-05-07T01:17:18;6.07;;;4.60;;
4704;SDS011;2366;51.332;6.610;2023-05-07T01:19:44;8.77;;;4.30;;
4704;SDS011;2366;51.332;6.610;2023-05-07T01:22:10;7.23;;;4.20;;
4704;SDS011;2366;51.332;6.610;2023-05-07T01:24:39;4.15;;;3.75;;
4704;SDS011;2366;51.332;6.610;2023-05-07T01:27:05;7.00;;;4.17;;
4704;SDS011;2366;51.332;6.610;2023-05-07T01:29:30;4.90;;;4.03;;
4704;SDS011;2366;51.332;6.610;2023-05-07T01:31:59;6.57;;;4.50;;
4704;SDS011;2366;51.332;6.610;2023-05-07T01:34:26;7.68;;;4.60;;
4704;SDS011;2366;51.332;6.610;2023-05-07T01:36:54;5.75;;;4.55;;
4704;SDS011;2366;51.332;6.610;2023-05-07T01:39:21;5.47;;;4.40;;
4704;SDS011;2366;51.332;6.610;2023-05-07T01:41:49;5.18;;;4.72;;
4704;SDS011;2366;51.332;6.610;2023-05-07T01:44:14;6.87;;;5.87;;
4704;SDS011;2366;51.332;6.610;2023-05-07T01:46:41;8.98;;;7.05;;
4704;SDS011;2366;51.332;6.610;2023-05-07T01:49:07;8.43;;;6.00;;
4704;SDS011;2366;51.332;6.610;2023-05-07T01:51:32;10.83;;;6.83;;
4704;SDS011;2366;51.332;6.610;2023-05-07T01:53:58;7.03;;;6.07;;
4704;SDS011;2366;51.332;6.610;2023-05-07T01:56:24;8.10;;;6.73;;
4704;SDS011;2366;51.332;6.610;2023-05-07T01:58:50;11.45;;;7.82;;
4704;SDS011;2366;51.332;6.610;2023-05-07T02:01:16;8.80;;;6.78;;
4704;SDS011;2366;51.332;6.610;2023-05-07T02:03:42;8.03;;;7.20;;
4704;SDS011;2366;51.332;6.610;2023-05-07T02:06:07;6.87;;;6.17;;
4704;SDS011;2366;51.332;6.610;2023-05-07T02:08:32;7.60;;;6.90;;
4704;SDS011;2366;51.332;6.610;2023-05-07T02:10:58;10.70;;;7.43;;
4704;SDS011;2366;51.332;6.610;2023-05-07T02:13:23;8.40;;;6.87;;
4704;SDS011;2366;51.332;6.610;2023-05-07T02:15:49;16.27;;;6.05;;
4704;SDS011;2366;51.332;6.610;2023-05-07T02:18:15;6.67;;;5.73;;
4704;SDS011;2366;51.332;6.610;2023-05-07T02:20:41;7.28;;;5.95;;
4704;SDS011;2366;51.332;6.610;2023-05-07T02:23:07;7.23;;;5.50;;
4704;SDS011;2366;51.332;6.610;2023-05-07T02:25:32;11.47;;;6.53;;
4704;SDS011;2366;51.332;6.610;2023-05-07T02:27:58;11.73;;;7.07;;
4704;SDS011;2366;51.332;6.610;2023-05-07T02:30:24;10.47;;;7.20;;
4704;SDS011;2366;51.332;6.610;2023-05-07T02:32:50;10.30;;;6.57;;
4704;SDS011;2366;51.332;6.610;2023-05-07T02:35:15;9.30;;;6.17;;
4704;SDS011;2366;51.332;6.610;2023-05-07T02:37:41;7.87;;;7.07;;
4704;SDS011;2366;51.332;6.610;2023-05-07T02:40:06;9.10;;;6.83;;
4704;SDS011;2366;51.332;6.610;2023-05-07T02:42:32;8.53;;;6.13;;
4704;SDS011;2366;51.332;6.610;2023-05-07T02:44:57;7.93;;;6.37;;
4704;SDS011;2366;51.332;6.610;2023-05-07T02:47:23;7.50;;;6.70;;
4704;SDS011;2366;51.332;6.610;2023-05-07T02:49:48;10.63;;;7.13;;
4704;SDS011;2366;51.332;6.610;2023-05-07T02:52:14;7.70;;;6.60;;
4704;SDS011;2366;51.332;6.610;2023-05-07T02:54:39;10.77;;;6.90;;
4704;SDS011;2366;51.332;6.610;2023-05-07T02:57:04;9.80;;;7.00;;
4704;SDS011;2366;51.332;6.610;2023-05-07T02:59:30;8.13;;;7.20;;
4704;SDS011;2366;51.332;6.610;2023-05-07T03:01:55;10.87;;;7.33;;
4704;SDS011;2366;51.332;6.610;2023-05-07T03:04:20;7.70;;;6.50;;
4704;SDS011;2366;51.332;6.610;2023-05-07T03:06:46;9.60;;;5.70;;
4704;SDS011;2366;51.332;6.610;2023-05-07T03:09:11;9.43;;;5.90;;
4704;SDS011;2366;51.332;6.610;2023-05-07T03:11:37;7.23;;;5.73;;
4704;SDS011;2366;51.332;6.610;2023-05-07T03:14:02;16.90;;;6.93;;
4704;SDS011;2366;51.332;6.610;2023-05-07T03:16:27;7.53;;;6.73;;
4704;SDS011;2366;51.332;6.610;2023-05-07T03:18:53;6.90;;;6.40;;
4704;SDS011;2366;51.332;6.610;2023-05-07T03:21:19;6.75;;;6.07;;
4704;SDS011;2366;51.332;6.610;2023-05-07T03:23:44;6.67;;;6.10;;
4704;SDS011;2366;51.332;6.610;2023-05-07T03:26:10;7.10;;;6.10;;
4704;SDS011;2366;51.332;6.610;2023-05-07T03:28:36;9.10;;;6.00;;
4704;SDS011;2366;51.332;6.610;2023-05-07T03:31:02;9.20;;;5.32;;
4704;SDS011;2366;51.332;6.610;2023-05-07T03:33:27;8.07;;;7.27;;
4704;SDS011;2366;51.332;6.610;2023-05-07T03:35:52;6.20;;;5.60;;
4704;SDS011;2366;51.332;6.610;2023-05-07T03:38:18;8.07;;;6.23;;
4704;SDS011;2366;51.332;6.610;2023-05-07T03:40:43;7.97;;;6.60;;
4704;SDS011;2366;51.332;6.610;2023-05-07T03:43:08;6.37;;;5.77;;
4704;SDS011;2366;51.332;6.610;2023-05-07T03:45:34;6.30;;;5.60;;
4704;SDS011;2366;51.332;6.610;2023-05-07T03:48:00;8.83;;;6.17;;
4704;SDS011;2366;51.332;6.610;2023-05-07T03:50:25;9.00;;;6.53;;
4704;SDS011;2366;51.332;6.610;2023-05-07T03:52:50;8.23;;;6.57;;
4704;SDS011;2366;51.332;6.610;2023-05-07T03:55:16;7.57;;;5.63;;
4704;SDS011;2366;51.332;6.610;2023-05-07T03:57:41;5.63;;;5.10;;
4704;SDS011;2366;51.332;6.610;2023-05-07T04:00:07;6.07;;;5.50;;
4704;SDS011;2366;51.332;6.610;2023-05-07T04:02:33;6.20;;;5.13;;
4704;SDS011;2366;51.332;6.610;2023-05-07T04:04:58;6.57;;;5.47;;
4704;SDS011;2366;51.332;6.610;2023-05-07T04:07:24;8.53;;;6.50;;
4704;SDS011;2366;51.332;6.610;2023-05-07T04:09:49;5.97;;;5.07;;
4704;SDS011;2366;51.332;6.610;2023-05-07T04:12:14;10.20;;;5.87;;
4704;SDS011;2366;51.332;6.610;2023-05-07T04:14:40;8.30;;;6.37;;
4704;SDS011;2366;51.332;6.610;2023-05-07T04:17:05;5.40;;;5.00;;
4704;SDS011;2366;51.332;6.610;2023-05-07T04:19:32;7.03;;;4.88;;
4704;SDS011;2366;51.332;6.610;2023-05-07T04:21:58;6.72;;;5.15;;
4704;SDS011;2366;51.332;6.610;2023-05-07T04:24:23;5.63;;;4.60;;
4704;SDS011;2366;51.332;6.610;2023-05-07T04:26:49;6.63;;;5.90;;
4704;SDS011;2366;51.332;6.610;2023-05-07T04:29:16;5.30;;;4.80;;
4704;SDS011;2366;51.332;6.610;2023-05-07T04:31:41;6.53;;;5.40;;
4704;SDS011;2366;51.332;6.610;2023-05-07T04:34:09;13.40;;;4.50;;
4704;SDS011;2366;51.332;6.610;2023-05-07T04:36:35;6.72;;;5.32;;
4704;SDS011;2366;51.332;6.610;2023-05-07T04:39:02;5.72;;;5.00;;
4704;SDS011;2366;51.332;6.610;2023-05-07T04:41:27;5.50;;;5.00;;
4704;SDS011;2366;51.332;6.610;2023-05-07T04:43:53;7.57;;;5.00;;
4704;SDS011;2366;51.332;6.610;2023-05-07T04:46:18;4.87;;;4.43;;
4704;SDS011;2366;51.332;6.610;2023-05-07T04:48:43;6.80;;;4.60;;
4704;SDS011;2366;51.332;6.610;2023-05-07T04:51:09;5.83;;;4.30;;
4704;SDS011;2366;51.332;6.610;2023-05-07T04:53:34;6.30;;;4.50;;
4704;SDS011;2366;51.332;6.610;2023-05-07T04:56:00;4.83;;;4.40;;
4704;SDS011;2366;51.332;6.610;2023-05-07T04:58:25;7.80;;;4.70;;
4704;SDS011;2366;51.332;6.610;2023-05-07T05:00:50;4.60;;;4.03;;
4704;SDS011;2366;51.332;6.610;2023-05-07T05:03:16;5.50;;;4.97;;
4704;SDS011;2366;51.332;6.610;2023-05-07T05:05:42;7.70;;;4.90;;
4704;SDS011;2366;51.332;6.610;2023-05-07T05:08:07;5.97;;;4.40;;
4704;SDS011;2366;51.332;6.610;2023-05-07T05:10:33;7.47;;;3.83;;
4704;SDS011;2366;51.332;6.610;2023-05-07T05:12:58;5.40;;;3.57;;
4704;SDS011;2366;51.332;6.610;2023-05-07T05:15:23;8.13;;;4.30;;
4704;SDS011;2366;51.332;6.610;2023-05-07T05:17:49;7.73;;;4.00;;
4704;SDS011;2366;51.332;6.610;2023-05-07T05:20:14;6.83;;;3.30;;
4704;SDS011;2366;51.332;6.610;2023-05-07T05:22:40;4.30;;;3.90;;
4704;SDS011;2366;51.332;6.610;2023-05-07T05:25:07;3.25;;;2.95;;
4704;SDS011;2366;51.332;6.610;2023-05-07T05:27:32;4.10;;;3.00;;
4704;SDS011;2366;51.332;6.610;2023-05-07T05:29:58;4.37;;;3.97;;
4704;SDS011;2366;51.332;6.610;2023-05-07T05:32:23;4.60;;;3.80;;
4704;SDS011;2366;51.332;6.610;2023-05-07T05:34:48;3.40;;;2.73;;
4704;SDS011;2366;51.332;6.610;2023-05-07T05:37:14;5.57;;;3.53;;
4704;SDS011;2366;51.332;6.610;2023-05-07T05:39:39;3.17;;;2.90;;
4704;SDS011;2366;51.332;6.610;2023-05-07T05:42:05;5.57;;;3.83;;
4704;SDS011;2366;51.332;6.610;2023-05-07T05:44:30;4.73;;;3.07;;
4704;SDS011;2366;51.332;6.610;2023-05-07T05:46:55;3.23;;;2.93;;
4704;SDS011;2366;51.332;6.610;2023-05-07T05:49:22;3.15;;;2.85;;
4704;SDS011;2366;51.332;6.610;2023-05-07T05:51:49;3.50;;;3.20;;
4704;SDS011;2366;51.332;6.610;2023-05-07T05:54:14;2.77;;;2.53;;
4704;SDS011;2366;51.332;6.610;2023-05-07T05:56:40;2.73;;;2.50;;
4704;SDS011;2366;51.332;6.610;2023-05-07T05:59:06;3.05;;;2.75;;
4704;SDS011;2366;51.332;6.610;2023-05-07T06:01:32;3.20;;;2.40;;
4704;SDS011;2366;51.332;6.610;2023-05-07T06:03:57;3.40;;;2.80;;
4704;SDS011;2366;51.332;6.610;2023-05-07T06:06:22;6.80;;;3.23;;
4704;SDS011;2366;51.332;6.610;2023-05-07T06:08:48;2.83;;;2.63;;
4704;SDS011;2366;51.332;6.610;2023-05-07T06:11:13;2.43;;;2.23;;
4704;SDS011;2366;51.332;6.610;2023-05-07T06:13:39;4.40;;;2.80;;
4704;SDS011;2366;51.332;6.610;2023-05-07T06:16:04;2.50;;;2.30;;
4704;SDS011;2366;51.332;6.610;2023-05-07T06:18:30;5.33;;;2.13;;
4704;SDS011;2366;51.332;6.610;2023-05-07T06:20:55;2.60;;;2.30;;
4704;SDS011;2366;51.332;6.610;2023-05-07T06:23:21;2.23;;;2.03;;
4704;SDS011;2366;51.332;6.610;2023-05-07T06:25:49;2.27;;;2.07;;
4704;SDS011;2366;51.332;6.610;2023-05-07T06:28:15;5.90;;;2.45;;
4704;SDS011;2366;51.332;6.610;2023-05-07T06:30:41;2.43;;;2.20;;
4704;SDS011;2366;51.332;6.610;2023-05-07T06:33:06;2.30;;;1.90;;
4704;SDS011;2366;51.332;6.610;2023-05-07T06:35:32;4.00;;;1.77;;
4704;SDS011;2366;51.332;6.610;2023-05-07T06:37:57;2.03;;;1.93;;
4704;SDS011;2366;51.332;6.610;2023-05-07T06:40:22;4.20;;;2.70;;
4704;SDS011;2366;51.332;6.610;2023-05-07T06:42:48;1.80;;;1.67;;
4704;SDS011;2366;51.332;6.610;2023-05-07T06:45:13;2.03;;;1.90;;
4704;SDS011;2366;51.332;6.610;2023-05-07T06:47:39;2.93;;;2.63;;
4704;SDS011;2366;51.332;6.610;2023-05-07T06:50:04;2.60;;;1.90;;
4704;SDS011;2366;51.332;6.610;2023-05-07T06:52:30;2.25;;;2.05;;
4704;SDS011;2366;51.332;6.610;2023-05-07T06:54:55;10.03;;;1.80;;
4704;SDS011;2366;51.332;6.610;2023-05-07T06:57:21;4.73;;;1.93;;
4704;SDS011;2366;51.332;6.610;2023-05-07T06:59:46;3.10;;;2.27;;
4704;SDS011;2366;51.332;6.610;2023-05-07T07:02:12;1.70;;;1.60;;
4704;SDS011;2366;51.332;6.610;2023-05-07T07:04:37;1.80;;;1.70;;
4704;SDS011;2366;51.332;6.610;2023-05-07T07:07:02;2.77;;;2.07;;
4704;SDS011;2366;51.332;6.610;2023-05-07T07:09:28;6.40;;;1.63;;
4704;SDS011;2366;51.332;6.610;2023-05-07T07:11:53;3.83;;;1.73;;
4704;SDS011;2366;51.332;6.610;2023-05-07T07:14:19;2.07;;;1.83;;
4704;SDS011;2366;51.332;6.610;2023-05-07T07:16:45;3.00;;;1.70;;
4704;SDS011;2366;51.332;6.610;2023-05-07T07:19:11;4.40;;;1.73;;
4704;SDS011;2366;51.332;6.610;2023-05-07T07:21:37;1.63;;;1.53;;
4704;SDS011;2366;51.332;6.610;2023-05-07T07:24:02;2.30;;;1.70;;
4704;SDS011;2366;51.332;6.610;2023-05-07T07:26:28;1.87;;;1.77;;
4704;SDS011;2366;51.332;6.610;2023-05-07T07:28:53;1.90;;;1.80;;
4704;SDS011;2366;51.332;6.610;2023-05-07T07:31:19;2.27;;;1.70;;
4704;SDS011;2366;51.332;6.610;2023-05-07T07:33:44;1.93;;;1.57;;
4704;SDS011;2366;51.332;6.610;2023-05-07T07:36:09;2.00;;;1.43;;
4704;SDS011;2366;51.332;6.610;2023-05-07T07:38:35;4.10;;;1.83;;
4704;SDS011;2366;51.332;6.610;2023-05-07T07:41:00;3.23;;;1.70;;
4704;SDS011;2366;51.332;6.610;2023-05-07T07:43:26;2.17;;;1.70;;
4704;SDS011;2366;51.332;6.610;2023-05-07T07:45:52;1.67;;;1.43;;
4704;SDS011;2366;51.332;6.610;2023-05-07T07:48:18;1.70;;;1.60;;
4704;SDS011;2366;51.332;6.610;2023-05-07T07:50:43;1.57;;;1.47;;
4704;SDS011;2366;51.332;6.610;2023-05-07T07:53:09;1.37;;;1.27;;
4704;SDS011;2366;51.332;6.610;2023-05-07T07:55:38;1.83;;;1.67;;
4704;SDS011;2366;51.332;6.610;2023-05-07T07:58:04;1.97;;;1.47;;
4704;SDS011;2366;51.332;6.610;2023-05-07T08:00:30;2.50;;;1.60;;
4704;SDS011;2366;51.332;6.610;2023-05-07T08:02:55;1.70;;;1.60;;
4704;SDS011;2366;51.332;6.610;2023-05-07T08:05:20;3.03;;;1.33;;
4704;SDS011;2366;51.332;6.610;2023-05-07T08:07:46;2.70;;;1.63;;
4704;SDS011;2366;51.332;6.610;2023-05-07T08:10:16;2.20;;;1.43;;
4704;SDS011;2366;51.332;6.610;2023-05-07T08:12:46;3.27;;;2.30;;
4704;SDS011;2366;51.332;6.610;2023-05-07T08:15:12;2.43;;;1.70;;
4704;SDS011;2366;51.332;6.610;2023-05-07T08:17:38;3.00;;;1.50;;
4704;SDS011;2366;51.332;6.610;2023-05-07T08:20:03;1.73;;;1.60;;
4704;SDS011;2366;51.332;6.610;2023-05-07T08:22:29;3.33;;;1.43;;
4704;SDS011;2366;51.332;6.610;2023-05-07T08:24:54;2.77;;;1.20;;
4704;SDS011;2366;51.332;6.610;2023-05-07T08:27:20;1.83;;;1.73;;
4704;SDS011;2366;51.332;6.610;2023-05-07T08:29:45;2.00;;;1.30;;
4704;SDS011;2366;51.332;6.610;2023-05-07T08:32:12;2.90;;;1.80;;
4704;SDS011;2366;51.332;6.610;2023-05-07T08:34:37;1.57;;;1.47;;
4704;SDS011;2366;51.332;6.610;2023-05-07T08:37:03;1.40;;;1.13;;
4704;SDS011;2366;51.332;6.610;2023-05-07T08:39:29;1.40;;;1.17;;
4704;SDS011;2366;51.332;6.610;2023-05-07T08:41:54;2.90;;;1.20;;
4704;SDS011;2366;51.332;6.610;2023-05-07T08:44:23;2.93;;;2.00;;
4704;SDS011;2366;51.332;6.610;2023-05-07T08:46:54;1.17;;;1.07;;
4704;SDS011;2366;51.332;6.610;2023-05-07T08:49:21;1.67;;;1.57;;
4704;SDS011;2366;51.332;6.610;2023-05-07T08:51:47;2.80;;;1.13;;
4704;SDS011;2366;51.332;6.610;2023-05-07T08:54:12;1.57;;;1.47;;
4704;SDS011;2366;51.332;6.610;2023-05-07T08:56:41;1.37;;;1.00;;
4704;SDS011;2366;51.332;6.610;2023-05-07T08:59:07;1.90;;;1.00;;
4704;SDS011;2366;51.332;6.610;2023-05-07T09:01:32;1.40;;;1.20;;
4704;SDS011;2366;51.332;6.610;2023-05-07T09:04:00;0.70;;;0.70;;
4704;SDS011;2366;51.332;6.610;2023-05-07T09:06:25;1.07;;;1.03;;
4704;SDS011;2366;51.332;6.610;2023-05-07T09:08:52;1.10;;;1.00;;
4704;SDS011;2366;51.332;6.610;2023-05-07T09:11:19;1.20;;;1.00;;
4704;SDS011;2366;51.332;6.610;2023-05-07T09:13:46;1.50;;;1.13;;
4704;SDS011;2366;51.332;6.610;2023-05-07T09:16:12;1.17;;;1.07;;
4704;SDS011;2366;51.332;6.610;2023-05-07T09:18:41;1.77;;;1.57;;
4704;SDS011;2366;51.332;6.610;2023-05-07T09:21:09;1.40;;;1.30;;
4704;SDS011;2366;51.332;6.610;2023-05-07T09:23:35;1.47;;;1.37;;
4704;SDS011;2366;51.332;6.610;2023-05-07T09:26:01;1.20;;;1.10;;
4704;SDS011;2366;51.332;6.610;2023-05-07T09:28:27;1.03;;;0.90;;
4704;SDS011;2366;51.332;6.610;2023-05-07T09:30:52;0.67;;;0.67;;
4704;SDS011;2366;51.332;6.610;2023-05-07T09:33:18;2.27;;;1.07;;
4704;SDS011;2366;51.332;6.610;2023-05-07T09:35:43;0.80;;;0.80;;
4704;SDS011;2366;51.332;6.610;2023-05-07T09:38:08;3.90;;;0.97;;
4704;SDS011;2366;51.332;6.610;2023-05-07T09:40:34;1.13;;;1.03;;
4704;SDS011;2366;51.332;6.610;2023-05-07T09:43:09;1.47;;;0.80;;
4704;SDS011;2366;51.332;6.610;2023-05-07T09:45:36;1.10;;;1.00;;
4704;SDS011;2366;51.332;6.610;2023-05-07T09:48:04;3.30;;;0.90;;
4704;SDS011;2366;51.332;6.610;2023-05-07T09:50:36;2.10;;;1.10;;
4704;SDS011;2366;51.332;6.610;2023-05-07T09:53:04;0.77;;;0.77;;
4704;SDS011;2366;51.332;6.610;2023-05-07T09:55:30;1.07;;;0.97;;
4704;SDS011;2366;51.332;6.610;2023-05-07T09:57:56;2.03;;;1.37;;
4704;SDS011;2366;51.332;6.610;2023-05-07T10:00:23;2.57;;;1.07;;
4704;SDS011;2366;51.332;6.610;2023-05-07T10:02:53;1.60;;;1.17;;
4704;SDS011;2366;51.332;6.610;2023-05-07T10:05:22;1.70;;;0.87;;
4704;SDS011;2366;51.332;6.610;2023-05-07T10:07:48;1.50;;;1.40;;
4704;SDS011;2366;51.332;6.610;2023-05-07T10:10:14;1.80;;;1.20;;
4704;SDS011;2366;51.332;6.610;2023-05-07T10:12:42;0.70;;;0.70;;
4704;SDS011;2366;51.332;6.610;2023-05-07T10:15:09;1.03;;;0.93;;
4704;SDS011;2366;51.332;6.610;2023-05-07T10:17:36;1.27;;;1.07;;
4704;SDS011;2366;51.332;6.610;2023-05-07T10:20:02;1.67;;;1.20;;
4704;SDS011;2366;51.332;6.610;2023-05-07T10:22:30;9.40;;;1.17;;
4704;SDS011;2366;51.332;6.610;2023-05-07T10:25:03;0.90;;;0.70;;
4704;SDS011;2366;51.332;6.610;2023-05-07T10:27:43;0.80;;;0.70;;
4704;SDS011;2366;51.332;6.610;2023-05-07T10:33:13;2.30;;;0.90;;
4704;SDS011;2366;51.332;6.610;2023-05-07T10:35:41;1.10;;;0.80;;
4704;SDS011;2366;51.332;6.610;2023-05-07T10:38:09;1.00;;;1.00;;
4704;SDS011;2366;51.332;6.610;2023-05-07T10:40:35;5.70;;;0.70;;
4704;SDS011;2366;51.332;6.610;2023-05-07T10:43:03;1.30;;;0.63;;
4704;SDS011;2366;51.332;6.610;2023-05-07T10:45:30;1.87;;;0.73;;
4704;SDS011;2366;51.332;6.610;2023-05-07T10:48:12;1.23;;;0.70;;
4704;SDS011;2366;51.332;6.610;2023-05-07T10:50:43;0.90;;;0.60;;
4704;SDS011;2366;51.332;6.610;2023-05-07T10:55:43;1.97;;;0.90;;
4704;SDS011;2366;51.332;6.610;2023-05-07T11:00:48;1.17;;;1.00;;
4704;SDS011;2366;51.332;6.610;2023-05-07T11:03:14;0.97;;;0.87;;
4704;SDS011;2366;51.332;6.610;2023-05-07T11:05:40;1.27;;;1.00;;
4704;SDS011;2366;51.332;6.610;2023-05-07T11:08:07;1.27;;;1.17;;
4704;SDS011;2366;51.332;6.610;2023-05-07T11:10:52;1.10;;;1.00;;
4704;SDS011;2366;51.332;6.610;2023-05-07T11:16:18;1.57;;;1.00;;
4704;SDS011;2366;51.332;6.610;2023-05-07T11:18:52;1.77;;;1.07;;
4704;SDS011;2366;51.332;6.610;2023-05-07T11:21:33;1.30;;;0.80;;
4704;SDS011;2366;51.332;6.610;2023-05-07T11:24:01;1.63;;;0.97;;
4704;SDS011;2366;51.332;6.610;2023-05-07T11:26:29;1.30;;;1.20;;
4704;SDS011;2366;51.332;6.610;2023-05-07T11:28:56;1.23;;;0.93;;
4704;SDS011;2366;51.332;6.610;2023-05-07T11:31:25;1.13;;;0.83;;
4704;SDS011;2366;51.332;6.610;2023-05-07T11:33:53;2.97;;;1.53;;
4704;SDS011;2366;51.332;6.610;2023-05-07T11:36:20;9.30;;;1.13;;
4704;SDS011;2366;51.332;6.610;2023-05-07T11:38:47;1.77;;;0.80;;
4704;SDS011;2366;51.332;6.610;2023-05-07T11:41:12;2.03;;;0.80;;
4704;SDS011;2366;51.332;6.610;2023-05-07T11:43:38;1.80;;;1.20;;
4704;SDS011;2366;51.332;6.610;2023-05-07T11:46:18;1.93;;;0.83;;
4704;SDS011;2366;51.332;6.610;2023-05-07T11:48:43;4.30;;;0.90;;
4704;SDS011;2366;51.332;6.610;2023-05-07T11:51:08;1.17;;;0.70;;
4704;SDS011;2366;51.332;6.610;2023-05-07T11:53:40;2.30;;;1.20;;
4704;SDS011;2366;51.332;6.610;2023-05-07T11:56:07;3.00;;;1.40;;
4704;SDS011;2366;51.332;6.610;2023-05-07T11:58:36;0.87;;;0.73;;
4704;SDS011;2366;51.332;6.610;2023-05-07T12:01:02;1.13;;;1.03;;
4704;SDS011;2366;51.332;6.610;2023-05-07T12:03:27;1.60;;;1.00;;
4704;SDS011;2366;51.332;6.610;2023-05-07T12:05:53;0.70;;;0.70;;
4704;SDS011;2366;51.332;6.610;2023-05-07T12:08:19;0.97;;;0.93;;
4704;SDS011;2366;51.332;6.610;2023-05-07T12:10:46;2.30;;;0.70;;
4704;SDS011;2366;51.332;6.610;2023-05-07T12:13:15;1.57;;;0.90;;
4704;SDS011;2366;51.332;6.610;2023-05-07T12:15:42;1.30;;;0.87;;
4704;SDS011;2366;51.332;6.610;2023-05-07T12:18:08;1.67;;;1.53;;
4704;SDS011;2366;51.332;6.610;2023-05-07T12:20:34;0.90;;;0.90;;
4704;SDS011;2366;51.332;6.610;2023-05-07T12:23:01;1.50;;;0.90;;
4704;SDS011;2366;51.332;6.610;2023-05-07T12:25:29;1.13;;;1.03;;
4704;SDS011;2366;51.332;6.610;2023-05-07T12:28:00;2.50;;;0.73;;
4704;SDS011;2366;51.332;6.610;2023-05-07T12:30:26;1.17;;;0.67;;
4704;SDS011;2366;51.332;6.610;2023-05-07T12:32:54;1.60;;;1.07;;
4704;SDS011;2366;51.332;6.610;2023-05-07T12:35:29;1.73;;;0.70;;
4704;SDS011;2366;51.332;6.610;2023-05-07T12:37:56;0.90;;;0.90;;
4704;SDS011;2366;51.332;6.610;2023-05-07T12:40:24;1.53;;;1.10;;
4704;SDS011;2366;51.332;6.610;2023-05-07T12:42:52;0.70;;;0.70;;
4704;SDS011;2366;51.332;6.610;2023-05-07T12:45:19;1.03;;;0.93;;
4704;SDS011;2366;51.332;6.610;2023-05-07T12:47:45;1.20;;;1.00;;
4704;SDS011;2366;51.332;6.610;2023-05-07T12:50:12;1.00;;;0.90;;
4704;SDS011;2366;51.332;6.610;2023-05-07T12:52:39;1.70;;;1.20;;
4704;SDS011;2366;51.332;6.610;2023-05-07T12:55:05;0.93;;;0.83;;
4704;SDS011;2366;51.332;6.610;2023-05-07T12:57:37;3.73;;;1.00;;
4704;SDS011;2366;51.332;6.610;2023-05-07T13:00:03;1.53;;;1.20;;
4704;SDS011;2366;51.332;6.610;2023-05-07T13:02:33;3.80;;;1.67;;
4704;SDS011;2366;51.332;6.610;2023-05-07T13:04:59;2.83;;;0.97;;
4704;SDS011;2366;51.332;6.610;2023-05-07T13:07:25;5.10;;;1.20;;
4704;SDS011;2366;51.332;6.610;2023-05-07T13:09:50;2.77;;;1.17;;
4704;SDS011;2366;51.332;6.610;2023-05-07T13:12:15;4.73;;;1.07;;
4704;SDS011;2366;51.332;6.610;2023-05-07T13:14:41;3.77;;;1.60;;
4704;SDS011;2366;51.332;6.610;2023-05-07T13:17:06;4.30;;;2.00;;
4704;SDS011;2366;51.332;6.610;2023-05-07T13:19:31;1.33;;;1.10;;
4704;SDS011;2366;51.332;6.610;2023-05-07T13:21:57;1.90;;;1.50;;
4704;SDS011;2366;51.332;6.610;2023-05-07T13:24:22;1.63;;;1.43;;
4704;SDS011;2366;51.332;6.610;2023-05-07T13:26:48;2.20;;;1.63;;
4704;SDS011;2366;51.332;6.610;2023-05-07T13:29:13;2.10;;;1.90;;
4704;SDS011;2366;51.332;6.610;2023-05-07T13:31:38;3.40;;;2.47;;
4704;SDS011;2366;51.332;6.610;2023-05-07T13:34:07;2.20;;;1.37;;
4704;SDS011;2366;51.332;6.610;2023-05-07T13:36:33;2.17;;;1.40;;
4704;SDS011;2366;51.332;6.610;2023-05-07T13:39:02;3.10;;;1.67;;
4704;SDS011;2366;51.332;6.610;2023-05-07T13:41:28;1.83;;;1.70;;
4704;SDS011;2366;51.332;6.610;2023-05-07T13:43:54;4.93;;;2.10;;
4704;SDS011;2366;51.332;6.610;2023-05-07T13:46:19;2.57;;;2.10;;
4704;SDS011;2366;51.332;6.610;2023-05-07T13:48:45;3.20;;;2.60;;
4704;SDS011;2366;51.332;6.610;2023-05-07T13:51:10;3.03;;;1.97;;
4704;SDS011;2366;51.332;6.610;2023-05-07T13:53:36;8.30;;;2.23;;
4704;SDS011;2366;51.332;6.610;2023-05-07T13:56:01;4.73;;;2.97;;
4704;SDS011;2366;51.332;6.610;2023-05-07T13:58:29;2.83;;;2.30;;
4704;SDS011;2366;51.332;6.610;2023-05-07T14:00:55;3.07;;;2.70;;
4704;SDS011;2366;51.332;6.610;2023-05-07T14:03:20;7.97;;;2.63;;
4704;SDS011;2366;51.332;6.610;2023-05-07T14:05:45;3.60;;;3.10;;
4704;SDS011;2366;51.332;6.610;2023-05-07T14:08:11;4.40;;;3.07;;
4704;SDS011;2366;51.332;6.610;2023-05-07T14:10:38;10.70;;;2.80;;
4704;SDS011;2366;51.332;6.610;2023-05-07T14:13:04;3.40;;;2.33;;
4704;SDS011;2366;51.332;6.610;2023-05-07T14:15:29;2.77;;;2.57;;
4704;SDS011;2366;51.332;6.610;2023-05-07T14:17:55;3.63;;;2.50;;
4704;SDS011;2366;51.332;6.610;2023-05-07T14:20:22;16.50;;;5.10;;
4704;SDS011;2366;51.332;6.610;2023-05-07T14:22:47;17.90;;;8.77;;
4704;SDS011;2366;51.332;6.610;2023-05-07T14:25:13;17.07;;;6.40;;
4704;SDS011;2366;51.332;6.610;2023-05-07T14:27:38;14.27;;;6.30;;
4704;SDS011;2366;51.332;6.610;2023-05-07T14:30:04;10.13;;;6.50;;
4704;SDS011;2366;51.332;6.610;2023-05-07T14:32:30;9.57;;;4.73;;
4704;SDS011;2366;51.332;6.610;2023-05-07T14:34:55;9.70;;;5.00;;
4704;SDS011;2366;51.332;6.610;2023-05-07T14:37:20;15.50;;;5.80;;
4704;SDS011;2366;51.332;6.610;2023-05-07T14:39:46;8.77;;;4.80;;
4704;SDS011;2366;51.332;6.610;2023-05-07T14:42:12;7.93;;;4.97;;
4704;SDS011;2366;51.332;6.610;2023-05-07T14:44:37;5.87;;;4.73;;
4704;SDS011;2366;51.332;6.610;2023-05-07T14:47:05;6.10;;;5.50;;
4704;SDS011;2366;51.332;6.610;2023-05-07T14:49:31;7.63;;;5.03;;
4704;SDS011;2366;51.332;6.610;2023-05-07T14:51:57;7.70;;;5.13;;
4704;SDS011;2366;51.332;6.610;2023-05-07T14:54:24;8.63;;;5.07;;
4704;SDS011;2366;51.332;6.610;2023-05-07T14:56:51;8.70;;;5.50;;
4704;SDS011;2366;51.332;6.610;2023-05-07T14:59:17;8.10;;;4.80;;
4704;SDS011;2366;51.332;6.610;2023-05-07T15:01:45;6.30;;;5.10;;
4704;SDS011;2366;51.332;6.610;2023-05-07T15:04:11;6.70;;;5.27;;
4704;SDS011;2366;51.332;6.610;2023-05-07T15:06:37;7.63;;;4.90;;
4704;SDS011;2366;51.332;6.610;2023-05-07T15:09:02;7.47;;;5.57;;
4704;SDS011;2366;51.332;6.610;2023-05-07T15:11:28;7.23;;;5.40;;
4704;SDS011;2366;51.332;6.610;2023-05-07T15:13:53;8.03;;;6.13;;
4704;SDS011;2366;51.332;6.610;2023-05-07T15:16:19;9.03;;;5.07;;
4704;SDS011;2366;51.332;6.610;2023-05-07T15:18:45;10.50;;;5.70;;
4704;SDS011;2366;51.332;6.610;2023-05-07T15:21:10;9.33;;;6.53;;
4704;SDS011;2366;51.332;6.610;2023-05-07T15:23:36;6.70;;;5.47;;